createdAt,value
2018-09-14T00:00:04.854Z,5.70
2018-09-14T00:01:04.838Z,6.00
2018-09-14T00:02:04.823Z,5.80
2018-09-14T00:03:04.820Z,6.10
2018-09-14T00:04:04.797Z,5.60
2018-09-14T00:05:04.779Z,6.00
2018-09-14T00:06:04.761Z,5.80
2018-09-14T00:07:04.743Z,5.90
2018-09-14T00:08:04.730Z,5.50
2018-09-14T00:09:04.712Z,5.80
2018-09-14T00:10:04.699Z,5.70
2018-09-14T00:11:04.684Z,5.50
2018-09-14T00:12:04.666Z,5.80
2018-09-14T00:13:04.650Z,6.20
2018-09-14T00:14:04.635Z,5.50
2018-09-14T00:15:04.615Z,5.90
2018-09-14T00:16:04.607Z,6.10
2018-09-14T00:17:04.594Z,6.60
2018-09-14T00:18:04.572Z,6.30
2018-09-14T00:19:04.555Z,6.30
2018-09-14T00:20:04.543Z,6.00
2018-09-14T00:21:04.525Z,6.60
2018-09-14T00:22:04.509Z,6.20
2018-09-14T00:23:04.492Z,6.50
2018-09-14T00:24:04.474Z,6.50
2018-09-14T00:25:04.462Z,6.00
2018-09-14T00:26:04.447Z,6.30
2018-09-14T00:27:04.429Z,6.40
2018-09-14T00:28:04.413Z,6.70
2018-09-14T00:29:04.399Z,6.10
2018-09-14T00:30:04.382Z,6.00
2018-09-14T00:31:04.367Z,6.50
2018-09-14T00:32:04.349Z,6.30
2018-09-14T00:33:04.334Z,6.00
2018-09-14T00:34:04.320Z,5.90
2018-09-14T00:35:04.305Z,6.20
2018-09-14T00:36:04.289Z,6.70
2018-09-14T00:37:04.269Z,6.60
2018-09-14T00:38:04.256Z,5.90
2018-09-14T00:39:04.238Z,6.60
2018-09-14T00:40:04.224Z,6.40
2018-09-14T00:41:04.211Z,6.20
2018-09-14T00:42:04.202Z,6.10
2018-09-14T00:43:04.180Z,6.20
2018-09-14T00:44:04.163Z,6.30
2018-09-14T00:45:04.148Z,6.60
2018-09-14T00:46:04.142Z,6.20
2018-09-14T00:47:04.112Z,6.70
2018-09-14T00:48:04.096Z,6.80
2018-09-14T00:49:04.082Z,6.80
2018-09-14T00:50:04.065Z,6.50
2018-09-14T00:51:04.051Z,6.60
2018-09-14T00:52:04.034Z,7.20
2018-09-14T00:53:04.020Z,7.10
2018-09-14T00:54:04.002Z,6.70
2018-09-14T00:55:03.987Z,6.40
2018-09-14T00:56:03.970Z,7.00
2018-09-14T00:57:03.960Z,6.70
2018-09-14T00:58:03.941Z,6.60
2018-09-14T00:59:03.926Z,6.70
2018-09-14T01:00:03.908Z,6.70
2018-09-14T01:01:03.899Z,6.80
2018-09-14T01:02:03.878Z,6.80
2018-09-14T01:03:03.859Z,6.10
2018-09-14T01:04:03.844Z,6.40
2018-09-14T01:05:03.831Z,6.50
2018-09-14T01:06:03.812Z,6.60
2018-09-14T01:07:03.798Z,6.40
2018-09-14T01:08:03.782Z,6.60
2018-09-14T01:09:03.767Z,6.70
2018-09-14T01:10:03.750Z,7.00
2018-09-14T01:11:03.734Z,6.70
2018-09-14T01:12:03.729Z,6.90
2018-09-14T01:13:03.703Z,7.60
2018-09-14T01:14:03.690Z,7.20
2018-09-14T01:15:03.673Z,6.90
2018-09-14T01:16:03.651Z,7.10
2018-09-14T01:17:03.654Z,7.10
2018-09-14T01:18:03.619Z,7.60
2018-09-14T01:19:03.603Z,7.80
2018-09-14T01:20:03.639Z,7.00
2018-09-14T01:21:03.571Z,7.30
2018-09-14T01:22:03.554Z,7.70
2018-09-14T01:23:03.537Z,7.80
2018-09-14T01:24:03.525Z,7.80
2018-09-14T01:25:03.508Z,7.30
2018-09-14T01:26:03.491Z,7.60
2018-09-14T01:27:03.476Z,7.60
2018-09-14T01:28:03.460Z,7.40
2018-09-14T01:29:03.450Z,7.30
2018-09-14T01:30:03.428Z,7.60
2018-09-14T01:31:03.410Z,7.50
2018-09-14T01:32:03.394Z,7.90
2018-09-14T01:33:03.381Z,8.00
2018-09-14T01:34:03.363Z,8.00
2018-09-14T01:35:03.352Z,7.50
2018-09-14T01:36:03.330Z,8.30
2018-09-14T01:37:03.324Z,7.90
2018-09-14T01:38:03.302Z,8.10
2018-09-14T01:39:03.281Z,7.90
2018-09-14T01:40:03.265Z,8.10
2018-09-14T01:41:03.252Z,7.80
2018-09-14T01:42:03.232Z,7.60
2018-09-14T01:43:03.217Z,8.30
2018-09-14T01:44:03.200Z,8.20
2018-09-14T01:45:03.188Z,8.60
2018-09-14T01:46:03.168Z,8.30
2018-09-14T01:47:03.151Z,8.70
2018-09-14T01:48:03.137Z,8.30
2018-09-14T01:49:03.123Z,8.50
2018-09-14T01:50:03.105Z,8.00
2018-09-14T01:51:03.087Z,8.10
2018-09-14T01:52:03.072Z,8.40
2018-09-14T01:53:03.061Z,8.40
2018-09-14T01:54:03.038Z,7.30
2018-09-14T01:55:03.028Z,8.20
2018-09-14T01:56:03.004Z,7.90
2018-09-14T01:57:02.991Z,8.40
2018-09-14T01:58:02.975Z,8.00
2018-09-14T01:59:02.958Z,8.60
2018-09-14T02:00:02.952Z,8.00
2018-09-14T02:01:02.926Z,9.10
2018-09-14T02:02:02.916Z,8.50
2018-09-14T02:03:02.897Z,8.20
2018-09-14T02:04:02.876Z,8.70
2018-09-14T02:05:02.863Z,8.70
2018-09-14T02:06:02.845Z,8.80
2018-09-14T02:07:02.829Z,8.60
2018-09-14T02:08:02.812Z,8.70
2018-09-14T02:09:02.797Z,9.00
2018-09-14T02:10:02.781Z,9.40
2018-09-14T02:11:02.762Z,9.00
2018-09-14T02:12:02.747Z,8.70
2018-09-14T02:13:02.734Z,9.30
2018-09-14T02:14:02.718Z,8.60
2018-09-14T02:15:02.703Z,8.90
2018-09-14T02:16:02.685Z,8.50
2018-09-14T02:17:02.669Z,9.40
2018-09-14T02:18:02.649Z,8.90
2018-09-14T02:19:02.634Z,9.30
2018-09-14T02:20:02.625Z,8.70
2018-09-14T02:21:02.600Z,9.60
2018-09-14T02:22:02.587Z,9.40
2018-09-14T02:23:02.568Z,9.20
2018-09-14T02:24:02.552Z,8.90
2018-09-14T02:25:02.540Z,8.90
2018-09-14T02:26:02.521Z,9.00
2018-09-14T02:27:02.504Z,9.20
2018-09-14T02:28:02.490Z,9.20
2018-09-14T02:29:02.470Z,9.50
2018-09-14T02:30:02.460Z,9.60
2018-09-14T02:31:02.438Z,9.50
2018-09-14T02:32:02.422Z,10.20
2018-09-14T02:33:02.404Z,9.90
2018-09-14T02:34:02.388Z,9.70
2018-09-14T02:35:02.375Z,9.10
2018-09-14T02:36:02.357Z,9.50
2018-09-14T02:37:02.339Z,9.00
2018-09-14T02:38:02.321Z,9.50
2018-09-14T02:39:02.313Z,9.30
2018-09-14T02:40:02.291Z,9.40
2018-09-14T02:41:02.273Z,9.20
2018-09-14T02:42:02.258Z,9.30
2018-09-14T02:43:02.242Z,9.10
2018-09-14T02:44:02.227Z,9.50
2018-09-14T02:45:02.210Z,9.50
2018-09-14T02:46:02.201Z,9.50
2018-09-14T02:47:02.174Z,9.10
2018-09-14T02:48:02.157Z,9.60
2018-09-14T02:49:02.142Z,9.40
2018-09-14T02:50:02.123Z,8.70
2018-09-14T02:51:02.107Z,9.40
2018-09-14T02:52:02.095Z,9.60
2018-09-14T02:53:02.081Z,9.60
2018-09-14T02:54:02.063Z,9.80
2018-09-14T02:55:02.046Z,9.40
2018-09-14T02:56:02.026Z,9.00
2018-09-14T02:57:02.008Z,9.60
2018-09-14T02:58:02.003Z,9.50
2018-09-14T02:59:01.986Z,9.80
2018-09-14T03:00:02.028Z,8.50
2018-09-14T03:01:01.942Z,9.80
2018-09-14T03:02:01.925Z,8.80
2018-09-14T03:03:01.914Z,9.20
2018-09-14T03:04:01.906Z,9.30
2018-09-14T03:05:01.880Z,9.10
2018-09-14T03:06:01.863Z,9.50
2018-09-14T03:07:01.847Z,9.40
2018-09-14T03:08:01.830Z,8.70
2018-09-14T03:09:01.810Z,9.50
2018-09-14T03:10:01.794Z,9.40
2018-09-14T03:11:01.775Z,8.60
2018-09-14T03:12:01.769Z,8.90
2018-09-14T03:13:01.743Z,9.10
2018-09-14T03:14:01.727Z,9.30
2018-09-14T03:15:01.711Z,9.00
2018-09-14T03:16:01.697Z,10.10
2018-09-14T03:17:01.677Z,8.80
2018-09-14T03:18:01.662Z,9.60
2018-09-14T03:19:01.644Z,8.70
2018-09-14T03:20:01.635Z,9.30
2018-09-14T03:21:01.610Z,9.30
2018-09-14T03:22:01.593Z,8.70
2018-09-14T03:23:01.575Z,9.20
2018-09-14T03:24:01.564Z,9.30
2018-09-14T03:25:01.543Z,8.80
2018-09-14T03:26:01.526Z,9.20
2018-09-14T03:27:01.510Z,9.20
2018-09-14T03:28:01.492Z,8.70
2018-09-14T03:29:01.477Z,9.10
2018-09-14T03:30:01.460Z,9.60
2018-09-14T03:31:01.444Z,9.30
2018-09-14T03:32:01.428Z,9.50
2018-09-14T03:33:01.409Z,9.00
2018-09-14T03:34:01.392Z,8.70
2018-09-14T03:35:01.377Z,9.00
2018-09-14T03:36:01.361Z,9.30
2018-09-14T03:37:01.342Z,9.00
2018-09-14T03:38:01.325Z,9.00
2018-09-14T03:39:01.307Z,9.90
2018-09-14T03:40:01.290Z,8.80
2018-09-14T03:41:01.277Z,9.40
2018-09-14T03:42:01.257Z,9.20
2018-09-14T03:43:01.238Z,9.00
2018-09-14T03:44:01.222Z,8.60
2018-09-14T03:45:01.207Z,9.00
2018-09-14T03:46:01.188Z,8.60
2018-09-14T03:47:01.169Z,9.20
2018-09-14T03:48:01.153Z,10.70
2018-09-14T03:49:01.166Z,10.10
2018-09-14T03:50:01.122Z,10.00
2018-09-14T03:51:01.105Z,9.30
2018-09-14T03:52:01.085Z,9.30
2018-09-14T03:53:01.069Z,9.90
2018-09-14T03:54:01.055Z,9.80
2018-09-14T03:55:01.037Z,9.40
2018-09-14T03:56:01.017Z,9.50
2018-09-14T03:57:01.002Z,9.70
2018-09-14T03:58:00.985Z,9.00
2018-09-14T03:59:00.969Z,9.50
2018-09-14T04:00:00.952Z,8.80
2018-09-14T04:01:00.935Z,54.30
2018-09-14T04:02:00.918Z,18.80
2018-09-14T04:03:00.904Z,16.00
2018-09-14T04:04:00.899Z,12.70
2018-09-14T04:05:00.868Z,11.30
2018-09-14T04:06:00.850Z,11.50
2018-09-14T04:07:00.830Z,12.90
2018-09-14T04:08:00.817Z,10.60
2018-09-14T04:09:00.795Z,10.60
2018-09-14T04:10:00.781Z,10.00
2018-09-14T04:11:00.763Z,10.30
2018-09-14T04:12:00.746Z,9.70
2018-09-14T04:13:00.731Z,9.60
2018-09-14T04:14:00.712Z,9.40
2018-09-14T04:15:00.699Z,9.70
2018-09-14T04:16:00.677Z,9.50
2018-09-14T04:17:00.667Z,9.40
2018-09-14T04:18:00.641Z,9.50
2018-09-14T04:19:00.626Z,9.60
2018-09-14T04:20:00.609Z,9.80
2018-09-14T04:21:00.601Z,9.70
2018-09-14T04:22:00.576Z,9.60
2018-09-14T04:23:00.557Z,10.40
2018-09-14T04:24:00.552Z,10.90
2018-09-14T04:25:00.525Z,10.00
2018-09-14T04:26:00.589Z,9.80
2018-09-14T04:27:00.554Z,10.50
2018-09-14T04:28:00.557Z,9.50
2018-09-14T04:29:00.505Z,11.30
2018-09-14T04:30:00.528Z,11.40
2018-09-14T04:31:00.427Z,11.90
2018-09-14T04:32:00.484Z,11.20
2018-09-14T04:33:00.523Z,11.40
2018-09-14T04:34:00.463Z,11.10
2018-09-14T04:35:00.414Z,11.30
2018-09-14T04:36:00.346Z,11.20
2018-09-14T04:37:00.318Z,10.90
2018-09-14T04:38:00.431Z,10.40
2018-09-14T04:39:00.323Z,10.80
2018-09-14T04:40:00.409Z,10.60
2018-09-14T04:41:00.343Z,10.10
2018-09-14T04:42:00.276Z,10.90
2018-09-14T04:43:00.371Z,10.00
2018-09-14T04:44:00.276Z,10.00
2018-09-14T04:45:00.221Z,9.70
2018-09-14T04:46:00.271Z,10.40
2018-09-14T04:47:00.195Z,10.40
2018-09-14T04:48:00.273Z,10.00
2018-09-14T04:49:00.199Z,9.90
2018-09-14T04:50:00.131Z,10.50
2018-09-14T04:51:00.078Z,9.80
2018-09-14T04:52:00.067Z,9.40
2018-09-14T04:53:00.040Z,10.10
2018-09-14T04:54:00.025Z,10.40
2018-09-14T04:55:00.013Z,11.30
2018-09-14T04:55:59.990Z,10.30
2018-09-14T04:56:59.971Z,10.20
2018-09-14T04:57:59.953Z,10.40
2018-09-14T04:58:59.936Z,10.80
2018-09-14T04:59:59.917Z,10.20
2018-09-14T05:00:59.899Z,10.50
2018-09-14T05:01:59.882Z,9.90
2018-09-14T05:02:59.903Z,10.10
2018-09-14T05:03:59.845Z,10.20
2018-09-14T05:04:59.831Z,10.80
2018-09-14T05:05:59.815Z,11.70
2018-09-14T05:06:59.839Z,10.80
2018-09-14T05:07:59.781Z,12.30
2018-09-14T05:08:59.763Z,11.30
2018-09-14T05:09:59.749Z,11.90
2018-09-14T05:10:59.725Z,12.40
2018-09-14T05:11:59.717Z,12.00
2018-09-14T05:12:59.695Z,12.20
2018-09-14T05:13:59.749Z,11.80
2018-09-14T05:14:59.663Z,10.90
2018-09-14T05:15:59.636Z,11.80
2018-09-14T05:16:59.624Z,11.60
2018-09-14T05:17:59.603Z,11.70
2018-09-14T05:18:59.584Z,11.20
2018-09-14T05:19:59.568Z,11.90
2018-09-14T05:20:59.552Z,12.00
2018-09-14T05:21:59.536Z,11.10
2018-09-14T05:22:59.515Z,11.20
2018-09-14T05:23:59.499Z,11.50
2018-09-14T05:24:59.603Z,11.40
2018-09-14T05:25:59.484Z,11.50
2018-09-14T05:26:59.538Z,11.70
2018-09-14T05:27:59.505Z,11.50
2018-09-14T05:28:59.448Z,11.40
2018-09-14T05:29:59.526Z,11.10
2018-09-14T05:30:59.372Z,11.10
2018-09-14T05:31:59.453Z,11.50
2018-09-14T05:32:59.392Z,11.30
2018-09-14T05:33:59.323Z,11.60
2018-09-14T05:34:59.304Z,12.00
2018-09-14T05:35:59.293Z,11.30
2018-09-14T05:36:59.272Z,12.00
2018-09-14T05:37:59.250Z,11.70
2018-09-14T05:38:59.232Z,12.70
2018-09-14T05:39:59.227Z,12.70
2018-09-14T05:40:59.201Z,11.90
2018-09-14T05:41:59.180Z,11.10
2018-09-14T05:42:59.163Z,11.20
2018-09-14T05:43:59.151Z,11.10
2018-09-14T05:44:59.128Z,11.70
2018-09-14T05:45:59.111Z,11.80
2018-09-14T05:46:59.093Z,11.20
2018-09-14T05:47:59.075Z,11.80
2018-09-14T05:48:59.062Z,11.10
2018-09-14T05:49:59.057Z,10.90
2018-09-14T05:50:59.022Z,11.90
2018-09-14T05:51:59.008Z,11.80
2018-09-14T05:52:58.987Z,11.50
2018-09-14T05:53:58.969Z,11.10
2018-09-14T05:54:58.953Z,12.10
2018-09-14T05:55:58.937Z,11.40
2018-09-14T05:56:58.923Z,11.50
2018-09-14T05:57:58.899Z,11.30
2018-09-14T05:58:58.885Z,11.00
2018-09-14T05:59:58.863Z,11.80
2018-09-14T06:00:58.845Z,12.00
2018-09-14T06:01:58.833Z,12.00
2018-09-14T06:02:58.809Z,11.30
2018-09-14T06:03:58.840Z,10.90
2018-09-14T06:04:58.774Z,11.70
2018-09-14T06:05:58.758Z,11.60
2018-09-14T06:06:58.741Z,11.50
2018-09-14T06:07:58.725Z,11.80
2018-09-14T06:08:58.715Z,11.00
2018-09-14T06:09:58.690Z,11.20
2018-09-14T06:10:58.671Z,11.50
2018-09-14T06:11:58.655Z,11.80
2018-09-14T06:12:58.638Z,11.20
2018-09-14T06:13:58.628Z,11.10
2018-09-14T06:14:58.602Z,11.90
2018-09-14T06:15:58.586Z,11.70
2018-09-14T06:16:58.641Z,11.80
2018-09-14T06:17:58.550Z,11.40
2018-09-14T06:18:58.533Z,11.90
2018-09-14T06:19:58.516Z,11.30
2018-09-14T06:20:58.500Z,10.80
2018-09-14T06:21:58.484Z,10.00
2018-09-14T06:22:58.536Z,10.90
2018-09-14T06:23:58.448Z,11.00
2018-09-14T06:24:58.434Z,10.50
2018-09-14T06:25:58.413Z,11.70
2018-09-14T06:26:58.394Z,10.70
2018-09-14T06:27:58.382Z,11.40
2018-09-14T06:28:58.362Z,11.70
2018-09-14T06:29:58.343Z,11.30
2018-09-14T06:30:58.326Z,12.20
2018-09-14T06:31:58.318Z,11.50
2018-09-14T06:32:58.295Z,13.60
2018-09-14T06:33:58.279Z,14.30
2018-09-14T06:34:58.259Z,14.20
2018-09-14T06:35:58.242Z,14.50
2018-09-14T06:36:58.229Z,15.50
2018-09-14T06:37:58.216Z,14.90
2018-09-14T06:38:58.198Z,14.80
2018-09-14T06:39:58.177Z,14.60
2018-09-14T06:40:58.165Z,14.60
2018-09-14T06:41:58.147Z,13.40
2018-09-14T06:42:58.129Z,13.20
2018-09-14T06:43:58.110Z,13.90
2018-09-14T06:44:58.138Z,14.00
2018-09-14T06:45:58.082Z,12.90
2018-09-14T06:46:58.062Z,13.20
2018-09-14T06:47:58.852Z,12.90
2018-09-14T06:48:58.037Z,12.20
2018-09-14T06:49:58.018Z,12.60
2018-09-14T06:50:58.010Z,11.80
2018-09-14T06:51:57.993Z,12.60
2018-09-14T06:52:57.971Z,11.60
2018-09-14T06:53:57.960Z,12.30
2018-09-14T06:54:57.947Z,11.70
2018-09-14T06:55:57.930Z,10.70
2018-09-14T06:56:57.918Z,10.70
2018-09-14T06:57:57.910Z,10.70
2018-09-14T06:58:57.888Z,10.90
2018-09-14T06:59:57.891Z,10.30
2018-09-14T07:00:57.866Z,10.10
2018-09-14T07:01:57.857Z,10.10
2018-09-14T07:02:57.843Z,9.50
2018-09-14T07:03:57.829Z,9.80
2018-09-14T07:04:57.824Z,8.50
2018-09-14T07:05:57.811Z,8.50
2018-09-14T07:06:57.799Z,8.90
2018-09-14T07:07:57.792Z,9.00
2018-09-14T07:08:57.785Z,8.80
2018-09-14T07:09:57.769Z,9.10
2018-09-14T07:10:57.764Z,8.20
2018-09-14T07:11:57.751Z,8.10
2018-09-14T07:12:57.753Z,8.50
2018-09-14T07:13:57.739Z,8.50
2018-09-14T07:14:57.732Z,8.50
2018-09-14T07:15:57.718Z,9.20
2018-09-14T07:16:57.724Z,8.40
2018-09-14T07:17:57.710Z,8.50
2018-09-14T07:18:57.703Z,8.80
2018-09-14T07:19:57.700Z,8.40
2018-09-14T07:20:57.686Z,8.60
2018-09-14T07:21:57.756Z,8.80
2018-09-14T07:22:57.675Z,8.50
2018-09-14T07:23:57.670Z,9.00
2018-09-14T07:24:57.843Z,9.20
2018-09-14T07:25:57.658Z,8.90
2018-09-14T07:26:57.655Z,9.50
2018-09-14T07:27:57.666Z,8.70
2018-09-14T07:28:57.700Z,9.10
2018-09-14T07:29:57.668Z,8.70
2018-09-14T07:30:57.642Z,9.30
2018-09-14T07:31:57.637Z,9.50
2018-09-14T07:32:57.639Z,9.50
2018-09-14T07:33:57.624Z,9.20
2018-09-14T07:34:57.618Z,9.10
2018-09-14T07:35:57.615Z,8.80
2018-09-14T07:36:57.615Z,8.60
2018-09-14T07:37:57.612Z,8.70
2018-09-14T07:38:57.605Z,8.50
2018-09-14T07:39:57.601Z,9.60
2018-09-14T07:40:57.600Z,9.00
2018-09-14T07:41:57.599Z,8.80
2018-09-14T07:42:57.600Z,9.60
2018-09-14T07:43:57.594Z,9.10
2018-09-14T07:44:57.591Z,9.00
2018-09-14T07:45:57.588Z,9.10
2018-09-14T07:46:57.592Z,9.10
2018-09-14T07:47:57.585Z,8.90
2018-09-14T07:48:57.589Z,9.00
2018-09-14T07:49:57.584Z,9.10
2018-09-14T07:50:57.589Z,8.60
2018-09-14T07:51:57.580Z,8.80
2018-09-14T07:52:57.594Z,8.90
2018-09-14T07:53:57.581Z,9.50
2018-09-14T07:54:57.582Z,10.10
2018-09-14T07:55:57.579Z,9.50
2018-09-14T07:56:57.582Z,9.50
2018-09-14T07:57:57.579Z,9.80
2018-09-14T07:58:57.584Z,8.50
2018-09-14T07:59:57.584Z,9.60
2018-09-14T08:00:57.581Z,8.90
2018-09-14T08:01:57.589Z,9.00
2018-09-14T08:02:57.597Z,10.00
2018-09-14T08:03:57.584Z,9.30
2018-09-14T08:04:57.587Z,11.00
2018-09-14T08:05:57.591Z,11.20
2018-09-14T08:06:57.597Z,10.30
2018-09-14T08:07:57.590Z,10.70
2018-09-14T08:08:57.593Z,9.70
2018-09-14T08:09:57.594Z,9.90
2018-09-14T08:10:57.596Z,10.20
2018-09-14T08:11:57.649Z,9.80
2018-09-14T08:12:57.602Z,10.10
2018-09-14T08:13:57.604Z,9.70
2018-09-14T08:14:57.604Z,9.80
2018-09-14T08:15:57.609Z,10.40
2018-09-14T08:16:57.610Z,10.10
2018-09-14T08:17:57.613Z,9.50
2018-09-14T08:18:57.618Z,10.50
2018-09-14T08:19:57.637Z,10.50
2018-09-14T08:20:57.621Z,9.30
2018-09-14T08:21:57.697Z,9.60
2018-09-14T08:22:57.622Z,9.10
2018-09-14T08:23:57.632Z,9.40
2018-09-14T08:24:57.634Z,9.80
2018-09-14T08:25:57.652Z,10.10
2018-09-14T08:26:57.839Z,9.70
2018-09-14T08:27:57.638Z,10.00
2018-09-14T08:28:57.648Z,9.70
2018-09-14T08:29:57.646Z,9.80
2018-09-14T08:30:57.651Z,9.70
2018-09-14T08:31:57.649Z,10.40
2018-09-14T08:32:57.653Z,9.70
2018-09-14T08:33:57.663Z,10.20
2018-09-14T08:34:57.656Z,10.40
2018-09-14T08:35:57.662Z,10.50
2018-09-14T08:36:57.667Z,10.10
2018-09-14T08:37:57.668Z,10.70
2018-09-14T08:38:57.671Z,11.20
2018-09-14T08:39:57.672Z,11.00
2018-09-14T08:40:57.680Z,11.30
2018-09-14T08:41:57.681Z,11.40
2018-09-14T08:42:57.683Z,10.50
2018-09-14T08:43:57.685Z,10.00
2018-09-14T08:44:57.688Z,10.70
2018-09-14T08:45:57.695Z,10.80
2018-09-14T08:46:57.697Z,11.20
2018-09-14T08:47:57.772Z,11.70
2018-09-14T08:48:57.706Z,10.80
2018-09-14T08:49:57.703Z,11.90
2018-09-14T08:50:57.707Z,11.30
2018-09-14T08:51:57.710Z,11.20
2018-09-14T08:52:57.711Z,11.20
2018-09-14T08:53:57.713Z,12.10
2018-09-14T08:54:57.721Z,12.90
2018-09-14T08:55:57.720Z,12.60
2018-09-14T08:56:57.722Z,12.10
2018-09-14T08:57:57.757Z,11.90
2018-09-14T08:58:57.730Z,13.40
2018-09-14T08:59:57.736Z,11.90
2018-09-14T09:00:57.764Z,13.50
2018-09-14T09:01:57.742Z,13.30
2018-09-14T09:02:57.737Z,13.60
2018-09-14T09:03:57.758Z,14.50
2018-09-14T09:04:57.744Z,24.60
2018-09-14T09:05:57.744Z,15.10
2018-09-14T09:06:57.742Z,14.60
2018-09-14T09:07:57.776Z,15.70
2018-09-14T09:08:57.749Z,15.30
2018-09-14T09:09:57.752Z,13.60
2018-09-14T09:10:57.760Z,15.70
2018-09-14T09:11:57.750Z,14.00
2018-09-14T09:12:57.759Z,14.30
2018-09-14T09:13:57.749Z,14.60
2018-09-14T09:14:57.755Z,14.20
2018-09-14T09:15:57.760Z,15.60
2018-09-14T09:16:57.752Z,13.30
2018-09-14T09:17:57.758Z,14.70
2018-09-14T09:18:57.748Z,14.60
2018-09-14T09:19:57.756Z,14.70
2018-09-14T09:20:57.748Z,14.60
2018-09-14T09:21:57.758Z,14.50
2018-09-14T09:22:57.757Z,14.00
2018-09-14T09:23:57.755Z,13.70
2018-09-14T09:24:57.754Z,13.70
2018-09-14T09:25:57.752Z,19.60
2018-09-14T09:26:57.762Z,21.00
2018-09-14T09:27:57.750Z,18.10
2018-09-14T09:28:57.750Z,17.50
2018-09-14T09:29:57.748Z,25.80
2018-09-14T09:30:57.745Z,16.80
2018-09-14T09:31:57.742Z,16.40
2018-09-14T09:32:57.738Z,16.00
2018-09-14T09:33:57.736Z,16.00
2018-09-14T09:34:57.754Z,15.40
2018-09-14T09:35:57.735Z,17.40
2018-09-14T09:36:57.731Z,16.70
2018-09-14T09:37:57.735Z,17.90
2018-09-14T09:38:57.731Z,17.40
2018-09-14T09:39:57.727Z,16.30
2018-09-14T09:40:57.724Z,17.00
2018-09-14T09:41:57.731Z,17.20
2018-09-14T09:42:57.778Z,17.20
2018-09-14T09:43:57.784Z,18.10
2018-09-14T09:44:57.714Z,18.10
2018-09-14T09:45:57.713Z,17.10
2018-09-14T09:46:57.710Z,17.10
2018-09-14T09:47:57.706Z,16.80
2018-09-14T09:48:57.701Z,18.30
2018-09-14T09:49:57.701Z,18.40
2018-09-14T09:50:57.719Z,17.90
2018-09-14T09:51:57.694Z,18.60
2018-09-14T09:52:57.687Z,18.60
2018-09-14T09:53:57.687Z,17.90
2018-09-14T09:54:57.682Z,19.10
2018-09-14T09:55:57.680Z,17.10
2018-09-14T09:56:57.671Z,18.80
2018-09-14T09:57:57.666Z,17.70
2018-09-14T09:58:57.662Z,19.30
2018-09-14T09:59:57.657Z,17.90
2018-09-14T10:00:57.654Z,19.00
2018-09-14T10:01:57.650Z,17.70
2018-09-14T10:02:57.645Z,18.20
2018-09-14T10:03:57.665Z,17.10
2018-09-14T10:04:57.633Z,17.20
2018-09-14T10:05:57.636Z,18.70
2018-09-14T10:06:57.628Z,18.40
2018-09-14T10:07:57.620Z,19.10
2018-09-14T10:08:57.615Z,19.30
2018-09-14T10:09:57.610Z,19.00
2018-09-14T10:10:57.605Z,19.40
2018-09-14T10:11:57.610Z,19.00
2018-09-14T10:12:57.597Z,18.40
2018-09-14T10:13:57.637Z,18.60
2018-09-14T10:14:57.653Z,19.00
2018-09-14T10:15:57.586Z,18.50
2018-09-14T10:16:57.576Z,17.20
2018-09-14T10:17:57.572Z,17.50
2018-09-14T10:18:57.572Z,17.10
2018-09-14T10:19:57.557Z,17.20
2018-09-14T10:20:57.602Z,17.80
2018-09-14T10:21:57.548Z,17.30
2018-09-14T10:22:57.549Z,16.00
2018-09-14T10:23:57.548Z,16.00
2018-09-14T10:24:57.536Z,15.60
2018-09-14T10:25:57.526Z,13.70
2018-09-14T10:26:57.523Z,13.80
2018-09-14T10:27:57.516Z,15.00
2018-09-14T10:28:57.556Z,14.20
2018-09-14T10:29:57.510Z,14.10
2018-09-14T10:30:57.500Z,14.10
2018-09-14T10:31:57.497Z,14.30
2018-09-14T10:32:57.486Z,13.60
2018-09-14T10:33:57.601Z,14.40
2018-09-14T10:34:57.533Z,13.70
2018-09-14T10:35:57.471Z,16.00
2018-09-14T10:36:57.516Z,16.10
2018-09-14T10:37:57.457Z,15.40
2018-09-14T10:38:57.455Z,15.00
2018-09-14T10:39:57.475Z,15.80
2018-09-14T10:40:57.456Z,15.70
2018-09-14T10:41:57.433Z,14.50
2018-09-14T10:42:57.535Z,15.10
2018-09-14T10:43:57.454Z,15.70
2018-09-14T10:44:57.416Z,16.10
2018-09-14T10:45:57.403Z,15.30
2018-09-14T10:46:57.409Z,15.70
2018-09-14T10:47:57.394Z,16.50
2018-09-14T10:48:57.500Z,15.60
2018-09-14T10:49:57.381Z,14.30
2018-09-14T10:50:57.371Z,11.20
2018-09-14T10:51:57.364Z,11.00
2018-09-14T10:52:57.358Z,10.80
2018-09-14T10:53:57.351Z,9.30
2018-09-14T10:54:57.435Z,9.50
2018-09-14T10:55:57.338Z,9.80
2018-09-14T10:56:57.325Z,9.70
2018-09-14T10:57:57.320Z,8.90
2018-09-14T10:58:57.312Z,8.50
2018-09-14T10:59:57.303Z,8.70
2018-09-14T11:00:57.413Z,8.90
2018-09-14T11:01:57.297Z,7.80
2018-09-14T11:02:57.285Z,8.90
2018-09-14T11:03:57.284Z,9.00
2018-09-14T11:04:57.275Z,8.30
2018-09-14T11:05:57.277Z,8.00
2018-09-14T11:06:57.317Z,7.20
2018-09-14T11:07:57.257Z,7.50
2018-09-14T11:08:57.241Z,7.00
2018-09-14T11:09:57.285Z,6.80
2018-09-14T11:10:57.234Z,7.20
2018-09-14T11:11:57.215Z,7.90
2018-09-14T11:12:57.251Z,7.50
2018-09-14T11:13:57.203Z,8.10
2018-09-14T11:14:57.201Z,8.60
2018-09-14T11:15:57.188Z,8.30
2018-09-14T11:16:57.185Z,9.20
2018-09-14T11:17:57.173Z,9.60
2018-09-14T11:18:57.229Z,9.10
2018-09-14T11:19:57.159Z,8.90
2018-09-14T11:20:57.154Z,9.60
2018-09-14T11:21:57.150Z,9.80
2018-09-14T11:22:57.147Z,9.20
2018-09-14T11:23:57.126Z,8.60
2018-09-14T11:24:57.169Z,9.10
2018-09-14T11:25:57.114Z,8.30
2018-09-14T11:26:57.106Z,8.60
2018-09-14T11:27:57.161Z,9.60
2018-09-14T11:28:57.088Z,9.30
2018-09-14T11:29:57.083Z,10.20
2018-09-14T11:30:57.079Z,9.10
2018-09-14T11:31:57.074Z,9.10
2018-09-14T11:32:57.061Z,9.20
2018-09-14T11:33:57.077Z,8.70
2018-09-14T11:34:57.041Z,9.70
2018-09-14T11:35:57.037Z,9.80
2018-09-14T11:36:57.025Z,9.10
2018-09-14T11:37:57.181Z,8.40
2018-09-14T11:38:57.008Z,9.50
2018-09-14T11:39:57.004Z,9.30
2018-09-14T11:40:56.995Z,8.90
2018-09-14T11:41:56.986Z,8.60
2018-09-14T11:42:56.978Z,10.30
2018-09-14T11:43:56.972Z,9.00
2018-09-14T11:44:56.964Z,9.90
2018-09-14T11:45:56.994Z,9.30
2018-09-14T11:46:56.944Z,8.50
2018-09-14T11:47:56.943Z,8.30
2018-09-14T11:48:56.929Z,7.90
2018-09-14T11:49:56.921Z,8.40
2018-09-14T11:50:56.919Z,8.20
2018-09-14T11:51:56.908Z,8.10
2018-09-14T11:52:56.898Z,8.50
2018-09-14T11:53:56.896Z,9.10
2018-09-14T11:54:56.878Z,8.80
2018-09-14T11:55:56.871Z,8.90
2018-09-14T11:56:56.864Z,9.80
2018-09-14T11:57:56.860Z,9.80
2018-09-14T11:58:56.851Z,9.10
2018-09-14T11:59:56.842Z,10.10
2018-09-14T12:00:56.832Z,11.80
2018-09-14T12:01:56.826Z,9.00
2018-09-14T12:02:56.816Z,8.80
2018-09-14T12:03:56.811Z,8.60
2018-09-14T12:04:56.801Z,8.70
2018-09-14T12:05:56.797Z,8.70
2018-09-14T12:06:56.788Z,8.40
2018-09-14T12:07:56.775Z,8.70
2018-09-14T12:08:56.769Z,9.00
2018-09-14T12:09:56.765Z,9.30
2018-09-14T12:10:56.753Z,9.70
2018-09-14T12:11:56.759Z,8.70
2018-09-14T12:12:56.738Z,8.80
2018-09-14T12:13:56.770Z,9.20
2018-09-14T12:14:56.721Z,9.10
2018-09-14T12:15:56.716Z,8.80
2018-09-14T12:16:56.718Z,8.60
2018-09-14T12:17:56.699Z,8.50
2018-09-14T12:18:56.696Z,8.30
2018-09-14T12:19:56.689Z,9.40
2018-09-14T12:20:56.675Z,8.10
2018-09-14T12:21:56.673Z,8.00
2018-09-14T12:22:56.664Z,8.10
2018-09-14T12:23:56.657Z,8.30
2018-09-14T12:24:56.656Z,8.10
2018-09-14T12:25:56.639Z,9.00
2018-09-14T12:26:56.629Z,8.10
2018-09-14T12:27:56.630Z,8.40
2018-09-14T12:28:56.627Z,8.70
2018-09-14T12:29:56.605Z,8.80
2018-09-14T12:30:56.601Z,8.70
2018-09-14T12:31:56.603Z,8.50
2018-09-14T12:32:56.594Z,8.10
2018-09-14T12:33:56.577Z,9.80
2018-09-14T12:34:56.569Z,9.50
2018-09-14T12:35:56.565Z,8.20
2018-09-14T12:36:56.555Z,8.80
2018-09-14T12:37:56.555Z,9.50
2018-09-14T12:38:56.551Z,9.80
2018-09-14T12:39:56.542Z,10.30
2018-09-14T12:40:56.527Z,9.60
2018-09-14T12:41:56.520Z,10.00
2018-09-14T12:42:56.510Z,10.60
2018-09-14T12:43:56.507Z,10.00
2018-09-14T12:44:56.494Z,9.90
2018-09-14T12:45:56.486Z,11.00
2018-09-14T12:46:56.477Z,10.80
2018-09-14T12:47:56.475Z,10.80
2018-09-14T12:48:56.460Z,10.90
2018-09-14T12:49:56.455Z,9.70
2018-09-14T12:50:56.441Z,9.60
2018-09-14T12:51:56.442Z,9.60
2018-09-14T12:52:56.428Z,9.40
2018-09-14T12:53:56.421Z,11.10
2018-09-14T12:54:56.421Z,10.90
2018-09-14T12:55:56.404Z,11.90
2018-09-14T12:56:56.404Z,11.80
2018-09-14T12:57:56.390Z,11.20
2018-09-14T12:58:56.392Z,11.30
2018-09-14T12:59:56.376Z,13.00
2018-09-14T13:00:56.363Z,13.70
2018-09-14T13:01:56.370Z,12.30
2018-09-14T13:02:56.353Z,14.10
2018-09-14T13:03:56.347Z,12.20
2018-09-14T13:04:56.344Z,13.30
2018-09-14T13:05:56.332Z,13.60